Time;durP1;ratioP1;P1;durP2;ratioP2;P2;SDS_P1;SDS_P2;PMS_P1;PMS_P2;Temp;Humidity;BMP_temperature;BMP_pressure;BME280_temperature;BME280_humidity;BME280_pressure;Samples;Min_cycle;Max_cycle;Signal;HPM_P1;HPM_P2
2021/11/22 00:03:10;;;;;;;5.30;1.30;;;6.10;87.60;;;;;;5097715;28;20039;-84
2021/11/22 00:05:36;;;;;;;4.45;1.13;;;6.10;87.70;;;;;;5095140;28;20028;-83
2021/11/22 00:08:02;;;;;;;2.05;1.00;;;6.10;87.60;;;;;;5095555;28;20024;-81
2021/11/22 00:10:27;;;;;;;4.18;1.08;;;6.00;87.60;;;;;;5096753;28;20119;-83
2021/11/22 00:12:54;;;;;;;1.60;0.88;;;6.00;87.60;;;;;;5097938;28;20097;-83
2021/11/22 00:15:19;;;;;;;2.53;1.10;;;6.00;87.70;;;;;;5096457;28;20499;-84
2021/11/22 00:17:46;;;;;;;2.80;1.00;;;6.00;87.80;;;;;;5096945;28;20023;-84
2021/11/22 00:20:18;;;;;;;1.58;0.85;;;5.90;87.80;;;;;;5096869;28;20047;-85
2021/11/22 00:22:44;;;;;;;2.85;1.15;;;6.00;87.90;;;;;;5094856;28;20093;-84
2021/11/22 00:25:11;;;;;;;2.53;0.85;;;6.00;87.90;;;;;;5097312;28;20418;-86
2021/11/22 00:27:37;;;;;;;1.75;1.02;;;5.90;87.90;;;;;;5097798;28;20555;-83
2021/11/22 00:30:05;;;;;;;4.72;1.30;;;5.90;87.90;;;;;;5098030;28;20082;-86
2021/11/22 00:32:33;;;;;;;1.20;0.80;;;5.90;87.90;;;;;;5097727;28;20065;-85
2021/11/22 00:34:59;;;;;;;3.95;1.00;;;5.90;88.00;;;;;;5098084;28;20340;-84
2021/11/22 00:37:31;;;;;;;2.72;0.95;;;5.90;88.00;;;;;;5097046;28;20041;-83
2021/11/22 00:39:57;;;;;;;4.85;1.10;;;5.90;88.00;;;;;;5096618;28;20020;-80
2021/11/22 00:42:23;;;;;;;2.20;0.80;;;5.90;88.00;;;;;;5094452;28;20475;-79
2021/11/22 00:44:49;;;;;;;2.00;0.80;;;5.90;88.00;;;;;;5093767;28;20027;-79
2021/11/22 00:50:37;;;;;;;4.25;1.00;;;5.80;88.00;;;;;;5095353;28;20081;-78
2021/11/22 00:53:03;;;;;;;2.55;0.90;;;5.80;88.00;;;;;;5093966;28;20020;-82
2021/11/22 00:55:29;;;;;;;2.70;0.80;;;5.80;88.00;;;;;;5093790;28;20127;-80
2021/11/22 00:57:55;;;;;;;3.28;0.80;;;5.80;88.10;;;;;;5093704;28;20111;-79
2021/11/22 01:00:22;;;;;;;3.20;0.88;;;5.80;88.70;;;;;;5093742;28;20020;-78
2021/11/22 01:02:47;;;;;;;2.83;1.10;;;5.80;88.10;;;;;;5093217;28;20020;-77
2021/11/22 01:05:15;;;;;;;3.58;1.40;;;5.80;88.10;;;;;;5093312;28;20491;-76
2021/11/22 01:07:40;;;;;;;2.22;0.70;;;5.80;88.10;;;;;;5093263;28;20024;-76
2021/11/22 01:13:28;;;;;;;2.75;0.75;;;5.80;88.20;;;;;;5094405;28;20023;-75
2021/11/22 01:15:54;;;;;;;3.25;1.10;;;5.70;88.20;;;;;;5093004;28;20024;-75
2021/11/22 01:18:19;;;;;;;3.70;0.90;;;5.70;88.20;;;;;;5093751;28;20055;-76
2021/11/22 01:20:46;;;;;;;2.05;0.90;;;5.70;88.20;;;;;;5093080;28;20021;-75
2021/11/22 01:23:13;;;;;;;3.13;0.90;;;5.70;88.20;;;;;;5095534;28;20020;-85
2021/11/22 01:25:40;;;;;;;3.03;0.98;;;5.70;88.20;;;;;;5096441;28;20489;-76
2021/11/22 01:28:07;;;;;;;2.50;0.85;;;5.70;88.30;;;;;;5093075;28;20373;-76
2021/11/22 01:30:33;;;;;;;1.95;0.73;;;5.70;88.30;;;;;;5094328;28;20020;-76
2021/11/22 01:32:58;;;;;;;1.92;0.95;;;5.70;88.30;;;;;;5093990;28;20373;-77
2021/11/22 01:35:24;;;;;;;1.17;0.68;;;5.70;88.40;;;;;;5092500;28;20027;-78
2021/11/22 01:37:50;;;;;;;0.95;0.60;;;5.70;88.30;;;;;;5092805;28;20031;-73
2021/11/22 01:40:20;;;;;;;2.70;1.05;;;5.70;88.40;;;;;;5091099;28;20032;-73
2021/11/22 01:42:46;;;;;;;4.35;1.10;;;5.70;88.40;;;;;;5093696;28;20060;-73
2021/11/22 01:45:15;;;;;;;4.78;1.00;;;5.70;88.40;;;;;;5092251;28;20024;-73
2021/11/22 01:47:42;;;;;;;3.20;1.00;;;5.70;88.40;;;;;;5093565;28;20040;-73
2021/11/22 01:50:10;;;;;;;3.85;1.25;;;5.70;88.40;;;;;;5089547;28;20062;-73
2021/11/22 01:52:39;;;;;;;3.00;0.82;;;5.70;88.40;;;;;;5089352;28;20040;-73
2021/11/22 01:55:06;;;;;;;1.92;0.80;;;5.70;88.40;;;;;;5096010;28;20108;-85
2021/11/22 01:57:34;;;;;;;3.88;1.13;;;5.70;88.40;;;;;;5097013;28;20082;-85
2021/11/22 02:00:02;;;;;;;2.58;1.10;;;5.70;88.40;;;;;;5097983;28;20051;-86
2021/11/22 02:02:27;;;;;;;2.22;1.10;;;5.60;88.40;;;;;;5096575;28;20046;-86
2021/11/22 02:04:53;;;;;;;3.42;1.15;;;5.60;88.40;;;;;;5096393;28;20088;-86
2021/11/22 02:08:15;;;;;;;3.15;1.00;;;5.60;88.50;;;;;;5096632;28;20040;-85
2021/11/22 02:10:40;;;;;;;2.15;1.20;;;5.60;88.50;;;;;;5097064;28;20028;-86
2021/11/22 02:13:06;;;;;;;3.10;1.00;;;5.60;88.50;;;;;;5096820;28;20028;-86
2021/11/22 02:15:33;;;;;;;2.90;1.15;;;5.50;88.60;;;;;;5097256;28;20081;-86
2021/11/22 02:17:59;;;;;;;1.80;0.93;;;5.50;88.60;;;;;;5097889;28;20050;-85
2021/11/22 02:20:28;;;;;;;1.33;0.90;;;5.50;88.60;;;;;;5096862;28;20028;-86
2021/11/22 02:22:57;;;;;;;1.70;1.00;;;5.50;88.60;;;;;;5096004;28;20024;-85
2021/11/22 02:25:26;;;;;;;1.95;0.88;;;5.50;88.70;;;;;;5096758;28;20032;-86
2021/11/22 02:27:51;;;;;;;2.10;0.80;;;5.50;88.60;;;;;;5096427;28;20062;-86
2021/11/22 02:30:20;;;;;;;3.67;1.30;;;5.50;88.70;;;;;;5096094;28;20417;-84
2021/11/22 02:32:47;;;;;;;2.53;0.90;;;5.50;88.70;;;;;;5094191;28;20077;-75
2021/11/22 02:35:16;;;;;;;2.40;0.90;;;5.40;88.60;;;;;;5093397;28;20032;-86
2021/11/22 02:37:42;;;;;;;2.88;1.08;;;5.40;88.70;;;;;;5093183;28;20043;-85
2021/11/22 02:40:08;;;;;;;7.10;1.23;;;5.40;88.70;;;;;;5096030;28;20021;-85
2021/11/22 02:42:40;;;;;;;2.83;0.95;;;5.40;88.70;;;;;;5097056;28;20025;-86
2021/11/22 02:45:06;;;;;;;4.97;1.00;;;5.40;88.80;;;;;;5099461;28;20507;-86
2021/11/22 02:47:32;;;;;;;2.05;1.00;;;5.40;88.80;;;;;;5096957;28;20020;-84
2021/11/22 02:49:57;;;;;;;2.40;1.00;;;5.40;88.80;;;;;;5093585;28;20035;-86
2021/11/22 02:52:23;;;;;;;2.03;0.70;;;5.40;88.80;;;;;;5098082;28;20044;-86
2021/11/22 02:54:50;;;;;;;2.58;1.10;;;5.30;88.80;;;;;;5097458;28;20123;-83
2021/11/22 02:57:16;;;;;;;3.85;1.10;;;5.30;88.90;;;;;;5097414;28;20048;-85
2021/11/22 02:59:42;;;;;;;3.78;0.98;;;5.30;88.80;;;;;;5095959;28;20054;-85
2021/11/22 03:02:08;;;;;;;3.20;0.90;;;5.30;88.90;;;;;;5096003;28;20055;-84
2021/11/22 03:04:36;;;;;;;3.90;1.10;;;5.20;88.90;;;;;;5095584;28;20036;-85
2021/11/22 03:07:03;;;;;;;2.10;1.00;;;5.30;89.00;;;;;;5097358;28;20056;-85
2021/11/22 03:09:29;;;;;;;4.57;0.98;;;5.20;89.00;;;;;;5095627;28;20024;-86
2021/11/22 03:11:56;;;;;;;3.05;1.10;;;5.30;89.00;;;;;;5097197;28;20056;-86
2021/11/22 03:14:24;;;;;;;2.33;0.80;;;5.20;89.00;;;;;;5095950;28;20495;-86
2021/11/22 03:16:50;;;;;;;3.65;1.10;;;5.20;89.00;;;;;;5096656;28;20047;-86
2021/11/22 03:19:16;;;;;;;2.63;0.90;;;5.20;89.10;;;;;;5095476;28;20035;-85
2021/11/22 03:21:42;;;;;;;4.90;1.20;;;5.10;89.60;;;;;;5095114;28;20106;-85
2021/11/22 03:24:07;;;;;;;3.65;1.30;;;5.20;89.10;;;;;;5094463;28;20036;-76
2021/11/22 03:26:33;;;;;;;5.35;1.00;;;5.10;89.10;;;;;;5091369;28;20032;-76
2021/11/22 03:28:59;;;;;;;5.32;1.10;;;5.10;89.10;;;;;;5091364;28;20024;-76
2021/11/22 03:31:24;;;;;;;2.67;0.80;;;5.10;89.10;;;;;;5091263;28;20053;-76
2021/11/22 03:33:50;;;;;;;2.33;0.82;;;5.10;89.20;;;;;;5092430;28;20111;-76
2021/11/22 03:36:17;;;;;;;2.90;0.90;;;5.10;89.20;;;;;;5091365;28;20089;-77
2021/11/22 03:38:42;;;;;;;2.92;0.63;;;5.10;89.20;;;;;;5091272;28;20017;-77
2021/11/22 03:41:14;;;;;;;4.07;1.20;;;5.10;89.20;;;;;;5093257;28;20020;-75
2021/11/22 03:43:47;;;;;;;1.73;0.85;;;5.10;89.30;;;;;;5096834;28;20031;-75
2021/11/22 03:46:18;;;;;;;3.15;1.10;;;5.00;89.20;;;;;;5096902;28;20073;-84
2021/11/22 03:48:44;;;;;;;5.32;1.00;;;5.00;89.20;;;;;;5097702;28;20391;-87
2021/11/22 03:51:10;;;;;;;2.25;0.93;;;5.00;89.30;;;;;;5097934;28;20031;-86
2021/11/22 03:53:36;;;;;;;1.35;1.00;;;5.00;89.20;;;;;;5097836;28;20024;-85
2021/11/22 03:56:03;;;;;;;1.80;1.00;;;5.00;89.20;;;;;;5098704;28;20050;-86
2021/11/22 03:58:29;;;;;;;2.65;0.90;;;5.00;89.30;;;;;;5098221;28;20032;-86
2021/11/22 04:00:55;;;;;;;3.42;0.90;;;5.00;89.30;;;;;;5097964;28;20044;-84
2021/11/22 04:03:21;;;;;;;1.65;0.80;;;5.00;89.30;;;;;;5097183;28;20530;-86
2021/11/22 04:05:48;;;;;;;1.70;0.90;;;5.00;89.30;;;;;;5096984;28;20051;-85
2021/11/22 04:11:36;;;;;;;1.95;0.90;;;5.00;89.30;;;;;;5098163;28;20036;-86
2021/11/22 04:14:04;;;;;;;2.25;0.85;;;4.90;89.40;;;;;;5096806;28;20555;-86
2021/11/22 04:16:30;;;;;;;1.25;0.80;;;4.90;89.30;;;;;;5096734;28;20484;-85
2021/11/22 04:18:55;;;;;;;3.13;1.00;;;4.90;89.40;;;;;;5097396;28;20032;-85
2021/11/22 04:21:23;;;;;;;1.67;0.90;;;4.90;89.40;;;;;;5097371;28;20028;-87
2021/11/22 04:23:50;;;;;;;1.88;0.90;;;4.80;89.40;;;;;;5096179;28;20020;-86
2021/11/22 04:26:18;;;;;;;2.25;0.98;;;4.80;89.40;;;;;;5093448;28;20167;-85
2021/11/22 04:28:44;;;;;;;4.20;1.00;;;4.90;89.40;;;;;;5095910;28;20016;-85
2021/11/22 04:31:10;;;;;;;2.67;1.00;;;4.80;89.40;;;;;;5096337;28;20068;-85
2021/11/22 04:33:36;;;;;;;1.20;0.80;;;4.80;89.40;;;;;;5096181;28;20025;-85
2021/11/22 04:36:03;;;;;;;3.55;1.10;;;4.80;89.40;;;;;;5096586;28;20480;-85
2021/11/22 04:38:29;;;;;;;1.48;0.90;;;4.80;89.40;;;;;;5098278;28;20031;-86
2021/11/22 04:40:54;;;;;;;5.13;0.90;;;4.80;89.40;;;;;;5096735;28;20027;-86
2021/11/22 04:44:04;;;;;;;3.25;1.23;;;4.80;89.40;;;;;;5096800;28;20020;-85
2021/11/22 04:46:31;;;;;;;2.13;1.05;;;4.80;89.50;;;;;;5096664;28;20102;-84
2021/11/22 04:48:57;;;;;;;1.73;1.00;;;4.80;89.40;;;;;;5093810;28;20097;-85
2021/11/22 04:51:24;;;;;;;3.15;0.98;;;4.80;89.40;;;;;;5097707;28;20027;-86
2021/11/22 04:53:49;;;;;;;2.60;1.00;;;4.80;89.40;;;;;;5079458;28;20162;-84
2021/11/22 04:56:16;;;;;;;2.63;0.90;;;4.80;89.40;;;;;;5096499;28;20468;-85
2021/11/22 04:58:41;;;;;;;1.52;0.95;;;4.80;90.00;;;;;;5097183;28;20475;-85
2021/11/22 05:01:07;;;;;;;4.32;1.10;;;4.70;89.40;;;;;;5096731;28;20047;-86
2021/11/22 05:03:33;;;;;;;2.17;0.80;;;4.70;89.40;;;;;;5096929;28;20024;-85
2021/11/22 05:05:59;;;;;;;3.53;0.90;;;4.70;89.40;;;;;;5096853;28;20372;-84
2021/11/22 05:08:25;;;;;;;2.35;1.00;;;4.70;89.50;;;;;;5097884;28;20061;-84
2021/11/22 05:10:51;;;;;;;3.83;0.80;;;4.70;89.50;;;;;;5095215;28;20040;-84
2021/11/22 05:13:19;;;;;;;1.40;0.88;;;4.70;89.50;;;;;;5098548;28;20046;-84
2021/11/22 05:15:46;;;;;;;7.35;1.00;;;4.60;89.50;;;;;;5097737;28;20027;-85
2021/11/22 05:18:12;;;;;;;2.00;0.70;;;4.70;89.50;;;;;;5094337;28;20035;-85
2021/11/22 05:21:34;;;;;;;3.22;1.20;;;4.70;89.60;;;;;;5097451;28;20499;-85
2021/11/22 05:24:01;;;;;;;2.00;0.70;;;4.70;89.50;;;;;;5097874;28;20121;-84
2021/11/22 05:26:29;;;;;;;1.83;0.80;;;4.70;89.50;;;;;;5097271;28;20039;-84
2021/11/22 05:28:55;;;;;;;2.20;1.08;;;4.60;89.50;;;;;;5097408;28;20111;-86
2021/11/22 05:34:51;;;;;;;2.53;1.00;;;4.70;89.50;;;;;;5098471;28;20547;-85
2021/11/22 05:37:17;;;;;;;3.13;0.80;;;4.60;89.50;;;;;;5097218;28;20112;-85
2021/11/22 05:39:45;;;;;;;3.88;1.35;;;4.60;89.50;;;;;;5097408;28;20024;-86
2021/11/22 05:42:11;;;;;;;1.85;1.13;;;4.60;89.50;;;;;;5096809;28;20361;-84
2021/11/22 05:44:37;;;;;;;1.50;0.90;;;4.60;89.50;;;;;;5096628;28;20028;-85
2021/11/22 05:47:09;;;;;;;1.13;1.00;;;4.60;89.50;;;;;;5097653;28;20030;-84
2021/11/22 05:49:36;;;;;;;1.95;1.05;;;4.60;89.50;;;;;;5098078;28;20024;-85
2021/11/22 05:52:04;;;;;;;1.77;0.98;;;4.60;89.50;;;;;;5097586;28;20108;-85
2021/11/22 05:54:32;;;;;;;3.30;0.95;;;4.60;89.50;;;;;;5096824;28;20476;-85
2021/11/22 05:56:59;;;;;;;3.80;1.05;;;4.60;89.50;;;;;;5094338;28;20066;-84
2021/11/22 05:59:25;;;;;;;1.55;0.98;;;4.50;89.50;;;;;;5097178;28;20054;-85
2021/11/22 06:01:51;;;;;;;1.90;0.93;;;4.50;89.50;;;;;;5098012;28;20024;-86
2021/11/22 06:04:16;;;;;;;2.15;1.00;;;4.50;89.50;;;;;;5097765;28;20098;-84
2021/11/22 06:06:42;;;;;;;4.55;1.23;;;4.50;89.50;;;;;;5096260;28;20032;-86
2021/11/22 06:09:08;;;;;;;1.15;0.82;;;4.50;89.50;;;;;;5097577;28;20488;-85
2021/11/22 06:11:34;;;;;;;2.60;1.00;;;4.50;89.50;;;;;;5096760;28;20502;-85
2021/11/22 06:14:00;;;;;;;1.48;0.90;;;4.40;89.50;;;;;;5096623;28;20031;-85
2021/11/22 06:16:25;;;;;;;4.25;1.15;;;4.40;89.50;;;;;;5095971;28;20024;-85
2021/11/22 06:18:51;;;;;;;3.15;1.00;;;4.40;89.50;;;;;;5092584;28;20036;-84
2021/11/22 06:21:17;;;;;;;2.55;1.10;;;4.40;89.50;;;;;;5096166;28;20081;-84
2021/11/22 06:23:42;;;;;;;6.82;1.45;;;4.40;89.60;;;;;;5096896;28;20099;-84
2021/11/22 06:26:08;;;;;;;3.85;1.00;;;4.40;89.60;;;;;;5096509;28;20039;-83
2021/11/22 06:28:34;;;;;;;2.63;1.20;;;4.30;89.60;;;;;;5095415;28;20040;-83
2021/11/22 06:31:00;;;;;;;4.78;1.10;;;4.30;89.60;;;;;;5095117;28;20032;-83
2021/11/22 06:33:26;;;;;;;1.60;1.10;;;4.30;89.60;;;;;;5093605;28;20032;-81
2021/11/22 06:35:52;;;;;;;2.35;1.20;;;4.30;89.60;;;;;;5094109;28;20039;-81
2021/11/22 06:38:18;;;;;;;3.72;1.17;;;4.30;89.70;;;;;;5093709;28;20484;-81
2021/11/22 06:40:45;;;;;;;2.97;1.20;;;4.30;89.70;;;;;;5092922;28;20028;-83
2021/11/22 06:43:11;;;;;;;2.15;1.40;;;4.30;89.80;;;;;;5094287;28;20016;-83
2021/11/22 06:45:37;;;;;;;2.03;1.27;;;4.30;89.80;;;;;;5094321;28;20407;-80
2021/11/22 06:48:03;;;;;;;4.97;1.40;;;4.30;89.80;;;;;;5095003;28;20560;-82
2021/11/22 06:50:30;;;;;;;3.58;1.42;;;4.30;89.80;;;;;;5097243;28;20032;-86
2021/11/22 06:52:56;;;;;;;4.13;1.50;;;4.30;89.80;;;;;;5096069;28;20028;-83
2021/11/22 06:55:21;;;;;;;5.07;1.27;;;4.30;89.80;;;;;;5096482;28;20131;-85
2021/11/22 06:57:47;;;;;;;4.28;1.90;;;4.20;89.70;;;;;;5096766;28;20031;-83
2021/11/22 07:00:15;;;;;;;2.33;1.10;;;4.20;89.70;;;;;;5098205;28;20038;-84
2021/11/22 07:02:42;;;;;;;3.05;1.20;;;4.20;89.70;;;;;;5098223;28;20484;-85
2021/11/22 07:05:08;;;;;;;1.63;1.02;;;4.20;89.70;;;;;;5097675;28;20500;-81
2021/11/22 07:07:34;;;;;;;3.55;1.35;;;4.20;89.70;;;;;;5093781;28;20073;-81
2021/11/22 07:10:00;;;;;;;5.95;1.10;;;4.20;89.70;;;;;;5096845;28;20089;-85
2021/11/22 07:12:26;;;;;;;4.80;1.10;;;4.20;89.70;;;;;;5093815;28;20182;-81
2021/11/22 07:14:53;;;;;;;1.42;0.75;;;4.20;89.70;;;;;;5094096;28;20031;-79
2021/11/22 07:17:22;;;;;;;3.08;1.30;;;4.20;89.70;;;;;;5097890;28;20142;-82
2021/11/22 07:19:48;;;;;;;2.25;1.00;;;4.20;89.70;;;;;;5097348;28;20020;-79
2021/11/22 07:25:36;;;;;;;3.05;1.25;;;4.20;89.80;;;;;;5097327;28;20047;-79
2021/11/22 07:28:14;;;;;;;2.72;1.23;;;4.20;89.70;;;;;;5097615;28;20020;-81
2021/11/22 07:30:40;;;;;;;1.80;1.15;;;4.20;89.70;;;;;;5095838;28;20069;-81
2021/11/22 07:33:06;;;;;;;4.18;1.20;;;4.20;89.70;;;;;;5097363;28;20032;-82
2021/11/22 07:35:31;;;;;;;5.38;1.25;;;4.20;89.60;;;;;;5097440;28;20059;-83
2021/11/22 07:37:57;;;;;;;4.25;1.30;;;4.20;89.60;;;;;;5098308;28;20035;-81
2021/11/22 07:40:23;;;;;;;3.10;1.30;;;4.30;89.70;;;;;;5096682;28;20035;-82
2021/11/22 07:42:51;;;;;;;4.25;1.40;;;4.30;89.60;;;;;;5096128;28;20032;-85
2021/11/22 07:45:17;;;;;;;2.83;1.20;;;4.30;89.60;;;;;;5100525;28;20484;-86
2021/11/22 07:47:43;;;;;;;2.08;1.00;;;4.40;89.60;;;;;;5103097;28;20024;-86
2021/11/22 07:50:09;;;;;;;3.45;1.10;;;4.40;89.50;;;;;;5100616;28;20484;-86
2021/11/22 07:52:34;;;;;;;3.05;1.08;;;4.50;89.50;;;;;;5100679;28;20028;-81
2021/11/22 07:55:00;;;;;;;2.80;1.10;;;4.60;89.50;;;;;;5097195;28;20055;-82
2021/11/22 07:57:28;;;;;;;1.80;1.00;;;4.60;89.20;;;;;;5100095;28;20028;-84
2021/11/22 07:59:53;;;;;;;2.55;0.95;;;4.70;89.00;;;;;;5100507;28;20016;-86
2021/11/22 08:02:19;;;;;;;2.53;0.90;;;4.70;88.90;;;;;;5101195;28;20096;-82
2021/11/22 08:04:45;;;;;;;4.43;1.17;;;4.70;88.90;;;;;;5100652;28;20082;-83
2021/11/22 08:07:17;;;;;;;3.58;1.30;;;4.70;88.90;;;;;;5101142;28;20073;-82
2021/11/22 08:10:00;;;;;;;2.88;1.10;;;4.70;88.90;;;;;;5108165;28;20039;-81
2021/11/22 08:12:27;;;;;;;2.67;1.30;;;4.70;88.90;;;;;;5109295;28;20024;-81
2021/11/22 08:14:58;;;;;;;1.73;1.00;;;4.70;88.90;;;;;;5102574;28;20060;-82
2021/11/22 08:17:24;;;;;;;2.88;0.82;;;4.80;89.00;;;;;;5099451;28;20028;-81
2021/11/22 08:19:51;;;;;;;2.78;0.80;;;4.80;88.90;;;;;;5097514;28;20016;-81
2021/11/22 08:22:20;;;;;;;4.95;1.52;;;4.80;88.90;;;;;;5094713;28;20051;-78
2021/11/22 08:24:50;;;;;;;2.05;1.25;;;4.90;88.90;;;;;;5095520;28;20024;-78
2021/11/22 08:27:16;;;;;;;4.60;1.17;;;5.00;88.80;;;;;;5093145;28;20035;-78
2021/11/22 08:29:42;;;;;;;1.77;0.93;;;5.00;89.40;;;;;;5094486;28;20396;-78
2021/11/22 08:32:08;;;;;;;3.90;1.00;;;5.10;88.70;;;;;;5094166;28;20568;-78
2021/11/22 08:34:33;;;;;;;4.57;1.00;;;5.10;88.60;;;;;;5093936;28;20036;-79
2021/11/22 08:36:59;;;;;;;3.20;1.10;;;5.20;88.50;;;;;;5094068;28;20480;-79
2021/11/22 08:39:25;;;;;;;0.98;0.70;;;5.20;88.40;;;;;;5094457;28;20064;-81
2021/11/22 08:41:51;;;;;;;2.67;1.00;;;5.30;88.20;;;;;;5094410;28;20365;-80
2021/11/22 08:44:16;;;;;;;1.40;1.00;;;5.30;88.20;;;;;;5096819;28;20043;-82
2021/11/22 08:46:42;;;;;;;2.45;0.90;;;5.30;88.10;;;;;;5095351;28;20032;-79
2021/11/22 08:49:08;;;;;;;3.17;0.80;;;5.30;88.10;;;;;;5095692;28;20032;-81
2021/11/22 08:51:35;;;;;;;3.63;1.05;;;5.30;88.00;;;;;;5096249;28;20032;-82
2021/11/22 08:54:01;;;;;;;1.70;0.77;;;5.30;88.00;;;;;;5095899;28;20032;-82
2021/11/22 08:56:26;;;;;;;2.72;0.82;;;5.40;88.00;;;;;;5095753;28;20085;-82
2021/11/22 08:58:52;;;;;;;3.08;0.85;;;5.40;87.90;;;;;;5095696;28;20024;-81
2021/11/22 09:01:18;;;;;;;2.08;0.70;;;5.50;87.80;;;;;;5094645;28;20024;-80
2021/11/22 09:03:43;;;;;;;2.45;0.90;;;5.50;87.80;;;;;;5094819;28;20492;-82
2021/11/22 09:06:11;;;;;;;3.67;0.88;;;5.60;87.70;;;;;;5096368;28;20028;-84
2021/11/22 09:08:37;;;;;;;2.72;0.77;;;5.60;87.60;;;;;;5098408;28;20043;-81
2021/11/22 09:11:02;;;;;;;2.70;0.85;;;5.60;87.50;;;;;;5096769;28;20055;-80
2021/11/22 09:13:28;;;;;;;3.55;1.10;;;5.70;87.50;;;;;;5097067;28;20028;-83
2021/11/22 09:15:53;;;;;;;1.65;0.98;;;5.70;87.40;;;;;;5095385;28;20068;-83
2021/11/22 09:18:19;;;;;;;4.22;1.00;;;5.80;87.30;;;;;;5095669;28;20070;-80
2021/11/22 09:20:46;;;;;;;1.92;0.90;;;5.80;87.30;;;;;;5096795;28;20035;-83
2021/11/22 09:23:14;;;;;;;3.22;0.88;;;5.90;87.20;;;;;;5096527;28;20337;-82
2021/11/22 09:25:40;;;;;;;1.70;0.80;;;6.00;87.10;;;;;;5095797;28;20024;-83
2021/11/22 09:28:05;;;;;;;3.28;1.08;;;6.00;87.00;;;;;;5096428;28;20027;-82
2021/11/22 09:30:31;;;;;;;2.67;1.10;;;6.10;86.90;;;;;;5096102;28;20020;-82
2021/11/22 09:32:57;;;;;;;2.85;1.20;;;6.10;86.80;;;;;;5096145;28;20047;-81
2021/11/22 09:38:45;;;;;;;1.42;0.68;;;6.20;86.60;;;;;;5096727;28;20154;-83
2021/11/22 09:41:12;;;;;;;1.75;0.95;;;6.30;86.60;;;;;;5095222;28;20484;-83
2021/11/22 09:47:00;;;;;;;3.00;0.90;;;6.40;86.50;;;;;;5098209;28;20084;-84
2021/11/22 09:49:27;;;;;;;2.08;1.00;;;6.40;86.40;;;;;;5097144;28;20024;-82
2021/11/22 09:51:52;;;;;;;2.78;0.93;;;6.50;86.40;;;;;;5095919;28;20054;-84
2021/11/22 09:54:19;;;;;;;1.75;0.90;;;6.50;86.30;;;;;;5098806;28;20032;-81
2021/11/22 09:56:46;;;;;;;1.10;0.90;;;6.60;86.30;;;;;;5095871;28;20112;-83
2021/11/22 09:59:13;;;;;;;3.88;1.38;;;6.60;86.10;;;;;;5097179;28;20027;-83
2021/11/22 10:01:39;;;;;;;3.03;1.00;;;6.60;86.00;;;;;;5094767;28;20027;-82
2021/11/22 10:04:11;;;;;;;1.90;0.90;;;6.60;85.90;;;;;;5096376;28;20024;-84
2021/11/22 10:06:50;;;;;;;5.50;0.90;;;6.60;85.90;;;;;;5095852;28;20551;-83
2021/11/22 10:09:31;;;;;;;3.88;1.15;;;6.70;85.90;;;;;;5096033;28;20082;-85
2021/11/22 10:11:59;;;;;;;0.85;0.80;;;6.70;85.80;;;;;;5095808;28;20587;-87
2021/11/22 10:14:38;;;;;;;2.17;1.10;;;6.80;85.80;;;;;;5095948;28;20499;-85
2021/11/22 10:17:32;;;;;;;1.27;0.90;;;6.80;85.80;;;;;;5095667;28;20392;-84
2021/11/22 10:20:07;;;;;;;2.22;1.00;;;6.90;85.60;;;;;;5091870;28;20028;-85
2021/11/22 10:23:07;;;;;;;1.10;1.00;;;7.00;85.50;;;;;;5095361;28;20442;-86
2021/11/22 10:25:37;;;;;;;1.10;1.00;;;7.10;85.50;;;;;;5088527;28;20036;-86
2021/11/22 10:28:18;;;;;;;2.80;1.08;;;7.10;85.40;;;;;;5095405;28;20119;-85
2021/11/22 10:31:03;;;;;;;3.78;1.10;;;7.20;84.90;;;;;;5096244;28;20028;-85
2021/11/22 10:33:33;;;;;;;3.28;0.90;;;7.20;84.60;;;;;;5096866;28;20023;-86
2021/11/22 10:36:00;;;;;;;3.40;0.65;;;7.20;84.70;;;;;;5096836;28;20423;-85
2021/11/22 10:38:32;;;;;;;1.40;0.57;;;7.20;84.70;;;;;;5095472;28;20480;-85
2021/11/22 10:41:08;;;;;;;1.80;0.70;;;7.30;84.60;;;;;;5094017;28;20028;-84
2021/11/22 10:43:43;;;;;;;2.55;1.20;;;7.40;84.40;;;;;;5095802;28;20032;-86
2021/11/22 10:46:10;;;;;;;1.90;0.90;;;7.40;84.00;;;;;;5096564;28;20087;-86
2021/11/22 10:49:31;;;;;;;2.42;1.10;;;7.40;83.80;;;;;;5095918;28;20032;-84
2021/11/22 10:52:35;;;;;;;2.88;0.90;;;7.50;83.10;;;;;;5101084;28;20085;-85
2021/11/22 10:55:03;;;;;;;2.90;1.00;;;7.50;83.00;;;;;;5101353;28;20075;-86
2021/11/22 10:57:48;;;;;;;3.20;1.00;;;7.50;83.10;;;;;;5097288;28;20082;-85
2021/11/22 11:00:17;;;;;;;1.88;1.00;;;7.50;82.90;;;;;;5100049;28;20020;-86
2021/11/22 11:02:43;;;;;;;1.80;0.90;;;7.60;82.70;;;;;;5099667;28;20484;-86
2021/11/22 11:05:23;;;;;;;6.53;0.90;;;7.60;82.30;;;;;;5099998;28;20106;-85
2021/11/22 11:08:00;;;;;;;1.55;0.90;;;7.70;82.50;;;;;;5099486;28;20039;-86
2021/11/22 11:13:50;;;;;;;2.92;1.00;;;7.80;82.00;;;;;;5096838;28;20022;-75
2021/11/22 11:16:17;;;;;;;1.70;0.73;;;7.80;82.00;;;;;;5095382;28;20024;-74
2021/11/22 11:19:04;;;;;;;2.00;0.75;;;7.90;82.00;;;;;;5092471;28;20487;-75
2021/11/22 11:21:33;;;;;;;4.10;0.80;;;7.90;81.80;;;;;;5096908;28;20021;-75
2021/11/22 11:24:01;;;;;;;3.30;0.88;;;7.90;81.30;;;;;;5095212;28;20115;-74
2021/11/22 11:26:29;;;;;;;1.38;0.50;;;8.00;81.10;;;;;;5096553;28;20035;-76
2021/11/22 11:28:55;;;;;;;2.30;0.80;;;8.00;80.50;;;;;;5096554;28;20044;-75
2021/11/22 11:31:22;;;;;;;3.88;0.80;;;8.00;80.40;;;;;;5095561;28;20111;-73
2021/11/22 11:33:48;;;;;;;2.20;0.90;;;8.10;80.50;;;;;;5095044;28;20491;-75
2021/11/22 11:36:32;;;;;;;1.45;0.75;;;8.10;80.30;;;;;;5094952;28;20031;-74
2021/11/22 11:39:23;;;;;;;5.13;0.93;;;8.20;80.50;;;;;;5094935;28;20033;-74
2021/11/22 11:42:24;;;;;;;2.03;0.88;;;8.20;80.30;;;;;;5095069;28;20043;-75
2021/11/22 11:45:21;;;;;;;1.63;0.73;;;8.20;79.50;;;;;;5092551;28;20096;-74
2021/11/22 11:48:21;;;;;;;4.35;0.95;;;8.20;79.60;;;;;;5095937;28;20032;-74
2021/11/22 11:50:47;;;;;;;4.03;1.00;;;8.20;79.10;;;;;;5094687;28;20028;-75
2021/11/22 11:53:16;;;;;;;2.60;0.90;;;8.20;79.10;;;;;;5096194;28;20111;-74
2021/11/22 11:55:45;;;;;;;1.67;0.82;;;8.30;79.10;;;;;;5095781;28;20050;-74
2021/11/22 11:58:25;;;;;;;2.72;0.90;;;8.30;79.10;;;;;;5094548;28;20016;-74
2021/11/22 12:01:01;;;;;;;3.58;1.13;;;8.30;78.80;;;;;;5094324;28;20503;-74
2021/11/22 12:03:30;;;;;;;1.63;0.68;;;8.30;78.40;;;;;;5094535;28;20127;-74
2021/11/22 12:05:58;;;;;;;1.42;0.90;;;8.30;78.30;;;;;;5094466;28;20492;-74
2021/11/22 12:08:29;;;;;;;1.80;0.98;;;8.40;77.60;;;;;;5094382;28;20557;-74
2021/11/22 12:11:03;;;;;;;1.20;0.50;;;8.40;77.50;;;;;;5094290;28;20080;-75
2021/11/22 12:13:46;;;;;;;2.55;0.60;;;8.40;77.80;;;;;;5095842;28;20039;-75
2021/11/22 12:16:42;;;;;;;1.10;0.73;;;8.40;77.90;;;;;;5096809;28;20373;-75
2021/11/22 12:19:33;;;;;;;1.60;0.82;;;8.50;77.80;;;;;;5095339;28;20017;-78
2021/11/22 12:22:14;;;;;;;3.60;0.80;;;8.50;77.10;;;;;;5095360;28;20063;-76
2021/11/22 12:24:42;;;;;;;0.73;0.60;;;8.50;76.50;;;;;;5095152;28;20039;-75
2021/11/22 12:30:30;;;;;;;0.75;0.65;;;8.60;76.70;;;;;;5096930;28;20154;-73
2021/11/22 12:33:21;;;;;;;1.83;0.90;;;8.60;76.00;;;;;;5095283;28;20104;-74
2021/11/22 12:35:49;;;;;;;2.13;0.90;;;8.60;76.30;;;;;;5095157;28;20059;-74
2021/11/22 12:38:24;;;;;;;1.30;0.63;;;8.70;76.10;;;;;;5096642;28;20063;-74
2021/11/22 12:40:52;;;;;;;0.80;0.70;;;8.70;75.80;;;;;;5095329;28;20061;-75
2021/11/22 12:43:44;;;;;;;1.83;0.80;;;8.70;75.70;;;;;;5095766;28;20016;-75
2021/11/22 12:46:19;;;;;;;1.05;0.85;;;8.70;75.40;;;;;;5095382;28;20084;-75
2021/11/22 12:48:48;;;;;;;2.25;0.80;;;8.80;75.60;;;;;;5096605;28;20024;-76
2021/11/22 12:51:22;;;;;;;3.13;0.85;;;8.90;75.60;;;;;;5096845;28;20405;-75
2021/11/22 12:54:00;;;;;;;3.67;0.73;;;8.90;74.90;;;;;;5095292;28;20027;-76
2021/11/22 12:56:36;;;;;;;2.25;0.77;;;8.90;74.60;;;;;;5095086;28;20131;-76
2021/11/22 12:59:06;;;;;;;1.92;0.80;;;8.90;74.60;;;;;;5095361;28;20434;-76
2021/11/22 13:01:32;;;;;;;3.00;0.90;;;9.00;74.60;;;;;;5094736;28;20020;-76
2021/11/22 13:03:57;;;;;;;4.57;0.90;;;9.00;74.60;;;;;;5094998;28;20077;-76
2021/11/22 13:06:34;;;;;;;1.63;0.60;;;9.10;74.70;;;;;;5096569;28;20034;-76
2021/11/22 13:09:01;;;;;;;2.17;0.75;;;9.10;74.30;;;;;;5095375;28;20388;-76
2021/11/22 13:11:29;;;;;;;1.27;0.70;;;9.10;74.10;;;;;;5094769;28;20038;-76
2021/11/22 13:14:06;;;;;;;1.52;0.73;;;9.20;73.60;;;;;;5094358;28;20032;-77
2021/11/22 13:16:32;;;;;;;3.40;0.63;;;9.30;73.70;;;;;;5094997;28;20030;-77
2021/11/22 13:19:16;;;;;;;4.63;0.80;;;9.30;73.60;;;;;;5094920;28;20009;-76
2021/11/22 13:21:51;;;;;;;2.65;0.60;;;9.30;73.40;;;;;;5094743;28;20391;-76
2021/11/22 13:24:39;;;;;;;1.63;0.50;;;9.40;73.50;;;;;;5094851;28;20023;-77
2021/11/22 13:27:07;;;;;;;3.33;0.85;;;9.50;73.30;;;;;;5094622;28;20028;-77
2021/11/22 13:29:33;;;;;;;2.45;0.45;;;9.50;73.30;;;;;;5094804;28;20059;-76
2021/11/22 13:32:02;;;;;;;1.48;0.60;;;9.50;73.00;;;;;;5096058;28;20020;-77
2021/11/22 13:34:30;;;;;;;3.33;0.70;;;9.60;72.70;;;;;;5095795;28;20472;-76
2021/11/22 13:36:59;;;;;;;1.08;0.60;;;9.60;72.70;;;;;;5094933;28;20020;-76
2021/11/22 13:39:31;;;;;;;1.15;0.60;;;9.60;72.40;;;;;;5094520;28;20066;-76
2021/11/22 13:41:59;;;;;;;1.40;0.50;;;9.60;72.30;;;;;;5091952;28;20025;-76